createdAt,value
2018-09-27T00:01:01.448Z,8.25
2018-09-27T00:03:29.420Z,7.00
2018-09-27T00:05:57.350Z,7.12
2018-09-27T00:08:25.260Z,5.72
2018-09-27T00:10:53.191Z,5.80
2018-09-27T00:13:21.141Z,6.33
2018-09-27T00:15:49.105Z,4.70
2018-09-27T00:18:17.001Z,5.70
2018-09-27T00:20:44.913Z,4.87
2018-09-27T00:23:12.862Z,4.87
2018-09-27T00:25:40.770Z,5.70
2018-09-27T00:28:08.749Z,5.30
2018-09-27T00:30:36.637Z,4.80
2018-09-27T00:33:04.522Z,5.45
2018-09-27T00:35:32.451Z,6.00
2018-09-27T00:38:00.370Z,5.08
2018-09-27T00:40:28.312Z,5.58
2018-09-27T00:42:56.230Z,4.45
2018-09-27T00:45:24.162Z,5.42
2018-09-27T00:47:52.134Z,5.55
2018-09-27T00:50:20.082Z,5.22
2018-09-27T00:52:48.020Z,4.83
2018-09-27T00:55:15.909Z,5.50
2018-09-27T00:57:43.793Z,4.40
2018-09-27T01:00:11.766Z,4.70
2018-09-27T01:02:39.718Z,5.47
2018-09-27T01:05:07.669Z,5.97
2018-09-27T01:07:35.605Z,4.37
2018-09-27T01:10:03.551Z,5.97
2018-09-27T01:12:31.520Z,5.50
2018-09-27T01:14:59.414Z,5.78
2018-09-27T01:17:27.373Z,6.30
2018-09-27T01:19:55.242Z,6.60
2018-09-27T01:22:23.224Z,4.97
2018-09-27T01:24:51.165Z,5.80
2018-09-27T01:27:19.133Z,6.15
2018-09-27T01:29:47.025Z,6.03
2018-09-27T01:32:14.926Z,5.33
2018-09-27T01:34:42.852Z,5.87
2018-09-27T01:37:10.757Z,5.85
2018-09-27T01:39:38.711Z,5.37
2018-09-27T01:42:06.602Z,8.85
2018-09-27T01:44:34.500Z,5.15
2018-09-27T01:47:02.452Z,4.80
2018-09-27T01:49:30.348Z,6.03
2018-09-27T01:51:58.257Z,7.60
2018-09-27T01:54:26.157Z,6.70
2018-09-27T01:56:54.062Z,5.53
2018-09-27T01:59:22.014Z,5.55
2018-09-27T02:01:49.954Z,8.00
2018-09-27T02:04:17.882Z,4.83
2018-09-27T02:06:45.781Z,4.40
2018-09-27T02:09:13.645Z,4.50
2018-09-27T02:11:41.582Z,4.42
2018-09-27T02:14:09.538Z,5.53
2018-09-27T02:16:37.483Z,5.30
2018-09-27T02:19:05.483Z,5.17
2018-09-27T02:21:33.356Z,7.85
2018-09-27T02:24:01.335Z,6.85
2018-09-27T02:26:29.253Z,5.75
2018-09-27T02:28:57.182Z,6.00
2018-09-27T02:31:25.150Z,6.55
2018-09-27T02:33:53.110Z,5.72
2018-09-27T02:36:21.066Z,6.70
2018-09-27T02:38:48.961Z,7.15
2018-09-27T02:41:16.842Z,6.60
2018-09-27T02:43:44.792Z,7.03
2018-09-27T02:46:12.689Z,7.42
2018-09-27T02:48:40.653Z,6.05
2018-09-27T02:51:08.593Z,6.35
2018-09-27T02:53:36.548Z,7.15
2018-09-27T02:56:04.493Z,5.72
2018-09-27T02:58:32.411Z,6.33
2018-09-27T03:01:00.365Z,5.25
2018-09-27T03:03:28.282Z,5.47
2018-09-27T03:05:56.293Z,6.53
2018-09-27T03:08:24.268Z,6.97
2018-09-27T03:10:52.576Z,7.45
2018-09-27T03:13:20.605Z,6.87
2018-09-27T03:15:48.675Z,6.83
2018-09-27T03:18:16.608Z,7.42
2018-09-27T03:20:44.571Z,6.40
2018-09-27T03:23:12.549Z,8.18
2018-09-27T03:25:41.027Z,6.60
2018-09-27T03:28:08.989Z,6.33
2018-09-27T03:30:37.027Z,5.87
2018-09-27T03:33:05.137Z,6.97
2018-09-27T03:35:33.117Z,5.97
2018-09-27T03:38:01.213Z,5.62
2018-09-27T03:40:29.186Z,6.25
2018-09-27T03:42:57.214Z,5.90
2018-09-27T03:45:25.173Z,5.37
2018-09-27T03:47:53.105Z,5.78
2018-09-27T03:50:21.311Z,5.65
2018-09-27T03:52:49.234Z,5.53
2018-09-27T03:55:17.222Z,5.42
2018-09-27T03:57:45.267Z,6.12
2018-09-27T04:00:13.234Z,6.47
2018-09-27T04:02:41.248Z,5.72
2018-09-27T04:05:09.201Z,4.42
2018-09-27T04:07:37.143Z,7.50
2018-09-27T04:10:05.137Z,5.37
2018-09-27T04:12:33.045Z,6.33
2018-09-27T04:15:01.014Z,5.35
2018-09-27T04:17:29.009Z,5.22
2018-09-27T04:19:57.008Z,5.80
2018-09-27T04:22:24.983Z,7.47
2018-09-27T04:24:52.988Z,6.75
2018-09-27T04:27:20.965Z,5.40
2018-09-27T04:29:48.908Z,6.55
2018-09-27T04:32:16.831Z,6.70
2018-09-27T04:34:44.803Z,5.78
2018-09-27T04:37:12.773Z,5.60
2018-09-27T04:39:40.813Z,5.10
2018-09-27T04:42:08.789Z,5.45
2018-09-27T04:44:36.802Z,4.50
2018-09-27T04:47:04.869Z,4.97
2018-09-27T04:49:32.862Z,6.03
2018-09-27T04:52:00.782Z,7.00
2018-09-27T04:54:28.838Z,6.15
2018-09-27T04:56:56.892Z,8.90
2018-09-27T04:59:24.979Z,6.58
2018-09-27T05:01:53.072Z,5.75
2018-09-27T05:04:21.225Z,8.15
2018-09-27T05:06:49.305Z,5.92
2018-09-27T05:09:17.376Z,5.20
2018-09-27T05:11:45.831Z,6.97
2018-09-27T05:14:13.941Z,7.50
2018-09-27T05:16:42.049Z,8.35
2018-09-27T05:19:10.289Z,6.30
2018-09-27T05:21:38.451Z,8.55
2018-09-27T05:24:06.481Z,9.10
2018-09-27T05:26:35.438Z,6.55
2018-09-27T05:29:03.548Z,6.37
2018-09-27T05:31:31.577Z,6.80
2018-09-27T05:33:59.629Z,6.87
2018-09-27T05:36:27.734Z,11.03
2018-09-27T05:38:55.792Z,6.92
2018-09-27T05:41:24.672Z,8.10
2018-09-27T05:44:02.348Z,6.95
2018-09-27T05:46:30.537Z,7.00
2018-09-27T05:48:58.868Z,7.42
2018-09-27T05:51:27.006Z,15.48
2018-09-27T05:53:55.133Z,12.68
2018-09-27T05:56:23.256Z,9.20
2018-09-27T05:58:51.505Z,9.28
2018-09-27T06:01:20.305Z,10.72
2018-09-27T06:03:48.379Z,20.23
2018-09-27T06:06:16.456Z,14.53
2018-09-27T06:08:44.564Z,17.12
2018-09-27T06:11:12.738Z,14.35
2018-09-27T06:13:40.819Z,12.80
2018-09-27T06:16:08.937Z,11.63
2018-09-27T06:18:37.034Z,17.55
2018-09-27T06:21:05.079Z,17.15
2018-09-27T06:23:33.149Z,19.75
2018-09-27T06:26:01.285Z,17.37
2018-09-27T06:28:29.359Z,13.93
2018-09-27T06:30:57.432Z,14.20
2018-09-27T06:33:25.465Z,11.03
2018-09-27T06:35:54.267Z,11.25
2018-09-27T06:38:22.341Z,8.65
2018-09-27T06:40:50.412Z,9.33
2018-09-27T06:43:18.501Z,11.80
2018-09-27T06:45:46.565Z,10.60
2018-09-27T06:48:14.729Z,10.00
2018-09-27T06:50:42.915Z,9.53
2018-09-27T06:53:10.957Z,9.50
2018-09-27T06:55:39.154Z,9.78
2018-09-27T06:58:07.207Z,9.85
2018-09-27T07:00:35.276Z,9.68
2018-09-27T07:03:03.309Z,10.23
2018-09-27T07:05:31.369Z,9.73
2018-09-27T07:07:59.465Z,9.45
2018-09-27T07:10:27.589Z,9.25
2018-09-27T07:12:55.698Z,10.85
2018-09-27T07:15:23.749Z,9.15
2018-09-27T07:17:51.899Z,11.28
2018-09-27T07:20:20.030Z,9.33
2018-09-27T07:22:48.112Z,10.90
2018-09-27T07:25:16.229Z,10.45
2018-09-27T07:27:44.240Z,8.25
2018-09-27T07:30:12.400Z,8.98
2018-09-27T07:32:40.505Z,8.95
2018-09-27T07:35:08.527Z,9.35
2018-09-27T07:37:36.548Z,12.00
2018-09-27T07:40:05.331Z,9.68
2018-09-27T07:42:33.460Z,12.10
2018-09-27T07:45:01.489Z,10.65
2018-09-27T07:47:29.656Z,12.28
2018-09-27T07:49:57.731Z,10.25
2018-09-27T07:52:25.790Z,10.08
2018-09-27T07:54:54.024Z,13.13
2018-09-27T07:57:21.997Z,10.95
2018-09-27T07:59:50.034Z,8.70
2018-09-27T08:02:18.124Z,12.43
2018-09-27T08:04:46.169Z,13.25
2018-09-27T08:07:14.280Z,12.53
2018-09-27T08:09:42.356Z,11.60
2018-09-27T08:12:10.428Z,10.98
2018-09-27T08:14:38.568Z,11.48
2018-09-27T08:17:06.599Z,11.75
2018-09-27T08:19:34.656Z,14.03
2018-09-27T08:22:02.647Z,14.25
2018-09-27T08:24:30.667Z,14.40
2018-09-27T08:26:58.724Z,13.28
2018-09-27T08:29:26.716Z,13.85
2018-09-27T08:31:54.768Z,13.28
2018-09-27T08:34:22.844Z,13.90
2018-09-27T08:36:50.856Z,13.88
2018-09-27T08:39:18.989Z,14.70
2018-09-27T08:41:47.033Z,14.25
2018-09-27T08:44:15.150Z,14.05
2018-09-27T08:46:43.192Z,14.10
2018-09-27T08:49:11.207Z,15.15
2018-09-27T08:51:39.382Z,14.07
2018-09-27T08:54:07.538Z,13.75
2018-09-27T08:56:35.639Z,17.82
2018-09-27T08:59:03.711Z,13.53
2018-09-27T09:01:31.745Z,15.37
2018-09-27T09:04:00.592Z,13.65
2018-09-27T09:06:28.686Z,14.30
2018-09-27T09:08:56.714Z,15.80
2018-09-27T09:11:24.752Z,16.42
2018-09-27T09:13:52.764Z,15.47
2018-09-27T09:16:20.858Z,16.03
2018-09-27T09:18:48.914Z,15.13
2018-09-27T09:21:17.037Z,16.73
2018-09-27T09:23:45.023Z,16.37
2018-09-27T09:26:13.038Z,15.37
2018-09-27T09:28:41.258Z,15.60
2018-09-27T09:31:09.156Z,13.30
2018-09-27T09:33:37.353Z,15.07
2018-09-27T09:36:05.431Z,15.57
2018-09-27T09:38:33.522Z,14.87
2018-09-27T09:41:01.538Z,15.27
2018-09-27T09:43:29.573Z,17.70
2018-09-27T09:45:57.688Z,15.93
2018-09-27T09:48:25.680Z,15.30
2018-09-27T09:50:53.695Z,14.17
2018-09-27T09:53:21.700Z,13.70
2018-09-27T09:55:49.728Z,15.23
2018-09-27T09:58:17.830Z,14.30
2018-09-27T10:00:45.856Z,14.90
2018-09-27T10:03:13.856Z,16.17
2018-09-27T10:05:41.930Z,15.33
2018-09-27T10:08:09.977Z,16.70
2018-09-27T10:10:38.038Z,14.50
2018-09-27T10:13:06.087Z,13.77
2018-09-27T10:15:34.157Z,12.90
2018-09-27T10:18:02.185Z,16.17
2018-09-27T10:20:30.203Z,13.57
2018-09-27T10:22:58.246Z,15.67
2018-09-27T10:25:26.261Z,13.10
2018-09-27T10:27:54.308Z,13.30
2018-09-27T10:30:22.460Z,12.07
2018-09-27T10:32:51.221Z,14.60
2018-09-27T10:35:19.488Z,13.30
2018-09-27T10:37:47.811Z,13.97
2018-09-27T10:40:16.113Z,12.23
2018-09-27T10:42:44.189Z,12.17
2018-09-27T10:45:12.149Z,14.23
2018-09-27T10:47:40.041Z,13.53
2018-09-27T10:50:08.080Z,13.87
2018-09-27T10:52:36.106Z,14.47
2018-09-27T10:55:04.360Z,14.13
2018-09-27T10:57:32.256Z,13.13
2018-09-27T11:00:00.223Z,13.40
2018-09-27T11:02:28.198Z,11.80
2018-09-27T11:04:56.126Z,14.47
2018-09-27T11:07:24.085Z,11.27
2018-09-27T11:09:52.014Z,15.73
2018-09-27T11:12:19.984Z,13.63
2018-09-27T11:14:47.918Z,15.83
2018-09-27T11:17:15.795Z,14.50
2018-09-27T11:19:43.818Z,16.67
2018-09-27T11:22:11.697Z,14.90
2018-09-27T11:24:39.637Z,12.60
2018-09-27T11:27:07.745Z,15.87
2018-09-27T11:30:39.909Z,14.17
2018-09-27T11:33:07.842Z,12.70
2018-09-27T11:35:35.709Z,16.33
2018-09-27T11:38:03.758Z,14.23
2018-09-27T11:40:31.669Z,23.07
2018-09-27T11:42:59.610Z,15.23
2018-09-27T11:45:27.521Z,13.30
2018-09-27T11:47:55.565Z,12.70
2018-09-27T11:50:23.639Z,11.70
2018-09-27T11:52:51.510Z,14.53
2018-09-27T11:55:19.467Z,9.90
2018-09-27T11:57:47.440Z,11.70
2018-09-27T12:00:15.458Z,11.93
2018-09-27T12:02:44.093Z,14.67
2018-09-27T12:05:12.045Z,14.33
2018-09-27T12:07:40.012Z,11.53
2018-09-27T12:10:07.929Z,14.50
2018-09-27T12:12:35.898Z,18.90
2018-09-27T12:15:03.999Z,13.30
2018-09-27T12:17:31.961Z,12.07
2018-09-27T12:19:59.888Z,10.80
2018-09-27T12:22:27.801Z,14.03
2018-09-27T12:24:55.707Z,13.60
2018-09-27T12:27:23.672Z,14.07
2018-09-27T12:29:51.610Z,10.40
2018-09-27T12:32:19.559Z,10.60
2018-09-27T12:34:47.493Z,10.37
2018-09-27T12:37:15.368Z,14.37
2018-09-27T12:39:43.418Z,11.50
2018-09-27T12:42:11.272Z,11.37
2018-09-27T12:44:39.134Z,12.50
2018-09-27T12:47:07.115Z,11.27
2018-09-27T12:49:35.044Z,10.40
2018-09-27T12:52:04.248Z,10.13
2018-09-27T12:54:32.016Z,10.13
2018-09-27T12:57:00.825Z,10.00
2018-09-27T12:59:28.732Z,9.50
2018-09-27T13:01:56.804Z,9.70
2018-09-27T13:04:24.652Z,10.17
2018-09-27T13:06:52.635Z,9.53
2018-09-27T13:09:20.700Z,8.87
2018-09-27T13:11:48.487Z,8.33
2018-09-27T13:14:16.422Z,8.67
2018-09-27T13:16:44.376Z,10.80
2018-09-27T13:19:13.464Z,11.30
2018-09-27T13:21:41.495Z,8.10
2018-09-27T13:24:09.401Z,8.63
2018-09-27T13:26:37.385Z,8.83
2018-09-27T13:29:05.299Z,8.10
2018-09-27T13:31:33.250Z,8.50
2018-09-27T13:34:01.253Z,7.17
2018-09-27T13:36:29.806Z,7.93
2018-09-27T13:38:57.758Z,10.00
2018-09-27T13:41:25.728Z,9.37
2018-09-27T13:43:53.650Z,10.67
2018-09-27T13:46:21.586Z,6.40
2018-09-27T13:48:49.521Z,6.80
2018-09-27T13:51:17.454Z,8.33
2018-09-27T13:53:45.400Z,7.00
2018-09-27T13:56:13.307Z,7.23
2018-09-27T13:58:41.230Z,7.33
2018-09-27T14:01:09.115Z,7.07
2018-09-27T14:03:37.007Z,6.30
2018-09-27T14:06:05.025Z,6.83
2018-09-27T14:08:33.063Z,6.97
2018-09-27T14:11:01.378Z,6.10
2018-09-27T14:13:29.108Z,6.00
2018-09-27T14:15:56.813Z,7.37
2018-09-27T14:18:24.594Z,6.93
2018-09-27T14:20:52.493Z,7.30
2018-09-27T14:23:20.263Z,5.90
2018-09-27T14:25:48.236Z,6.50
2018-09-27T14:28:16.096Z,6.77
2018-09-27T14:30:43.968Z,5.53
2018-09-27T14:33:11.705Z,5.40
2018-09-27T14:35:39.559Z,5.23
2018-09-27T14:38:08.386Z,4.97
2018-09-27T14:40:36.176Z,4.57
2018-09-27T14:43:04.017Z,5.43
2018-09-27T14:45:31.797Z,5.00
2018-09-27T14:47:59.744Z,6.23
2018-09-27T14:50:27.550Z,5.00
2018-09-27T14:52:55.334Z,4.23
2018-09-27T14:55:23.139Z,3.80
2018-09-27T14:57:50.960Z,4.30
2018-09-27T15:00:18.814Z,3.90
2018-09-27T15:02:46.659Z,4.00
2018-09-27T15:05:14.449Z,4.17
2018-09-27T15:07:42.507Z,4.03
2018-09-27T15:10:10.406Z,6.23
2018-09-27T15:12:38.270Z,3.57
2018-09-27T15:15:06.174Z,6.17
2018-09-27T15:17:33.917Z,6.63
2018-09-27T15:20:01.716Z,5.70
2018-09-27T15:22:29.530Z,5.50
2018-09-27T15:24:57.290Z,6.00
2018-09-27T15:27:25.201Z,6.20
2018-09-27T15:29:52.965Z,6.50
2018-09-27T15:32:20.761Z,5.90
2018-09-27T15:34:48.572Z,5.60
2018-09-27T15:37:16.373Z,7.23
2018-09-27T15:39:44.172Z,5.93
2018-09-27T15:42:13.476Z,4.77
2018-09-27T15:44:41.644Z,4.10
2018-09-27T15:47:09.793Z,4.37
2018-09-27T15:49:37.825Z,4.40
2018-09-27T15:52:05.727Z,4.37
2018-09-27T15:54:33.473Z,3.70
2018-09-27T15:57:01.219Z,3.87
2018-09-27T15:59:29.033Z,3.47
2018-09-27T16:01:56.826Z,3.13
2018-09-27T16:04:24.637Z,3.63
2018-09-27T16:06:52.440Z,3.40
2018-09-27T16:09:20.206Z,3.23
2018-09-27T16:11:47.982Z,2.53
2018-09-27T16:14:15.883Z,2.93
2018-09-27T16:16:43.745Z,3.20
2018-09-27T16:19:11.582Z,7.60
2018-09-27T16:21:39.354Z,62.07
2018-09-27T16:24:07.117Z,29.63
2018-09-27T16:26:34.935Z,7.43
2018-09-27T16:29:02.722Z,5.80
2018-09-27T16:31:30.533Z,3.77
2018-09-27T16:33:58.310Z,26.47
2018-09-27T16:36:26.082Z,6.83
2018-09-27T16:38:53.894Z,4.10
2018-09-27T16:41:21.810Z,5.30
2018-09-27T16:43:49.787Z,3.10
2018-09-27T16:46:17.759Z,4.83
2018-09-27T16:48:45.748Z,8.60
2018-09-27T16:51:13.687Z,4.80
2018-09-27T16:53:41.704Z,7.07
2018-09-27T16:56:09.641Z,3.50
2018-09-27T16:58:37.554Z,3.43
2018-09-27T17:01:05.748Z,2.97
2018-09-27T17:03:33.529Z,4.00
2018-09-27T17:06:01.320Z,3.70
2018-09-27T17:08:29.258Z,2.83
2018-09-27T17:10:57.108Z,2.87
2018-09-27T17:13:24.906Z,2.47
2018-09-27T17:15:52.681Z,3.50
2018-09-27T17:18:20.677Z,4.10
2018-09-27T17:20:48.525Z,4.10
2018-09-27T17:23:16.453Z,4.20
2018-09-27T17:25:45.065Z,3.43
2018-09-27T17:28:13.250Z,3.83
2018-09-27T17:30:41.417Z,2.60
2018-09-27T17:33:09.847Z,2.67
2018-09-27T17:35:38.113Z,3.20
2018-09-27T17:38:06.313Z,2.60
2018-09-27T17:40:34.425Z,2.80
2018-09-27T17:43:02.879Z,2.30
2018-09-27T17:45:30.879Z,2.67
2018-09-27T17:47:58.953Z,2.63
2018-09-27T17:50:26.968Z,4.23
2018-09-27T17:52:54.893Z,6.07
2018-09-27T17:55:22.916Z,3.10
2018-09-27T17:57:50.913Z,3.00
2018-09-27T18:00:18.821Z,3.90
2018-09-27T18:02:46.814Z,5.30
2018-09-27T18:05:19.162Z,4.27
2018-09-27T18:07:42.731Z,3.03
2018-09-27T18:10:10.762Z,2.50
2018-09-27T18:12:38.710Z,2.57
2018-09-27T18:15:06.710Z,2.80
2018-09-27T18:17:34.727Z,2.20
2018-09-27T18:20:02.702Z,3.00
2018-09-27T18:22:31.007Z,2.63
2018-09-27T18:24:58.945Z,3.13
2018-09-27T18:27:26.933Z,2.90
2018-09-27T18:29:54.933Z,2.93
2018-09-27T18:32:22.922Z,3.20
2018-09-27T18:34:50.885Z,3.20
2018-09-27T18:37:18.886Z,3.03
2018-09-27T18:39:46.853Z,2.90
2018-09-27T18:42:14.825Z,2.90
2018-09-27T18:44:42.813Z,4.10
2018-09-27T18:47:10.826Z,6.70
2018-09-27T18:49:38.712Z,7.87
2018-09-27T18:52:06.664Z,8.27
2018-09-27T18:54:34.629Z,8.83
2018-09-27T18:57:02.643Z,8.37
2018-09-27T18:59:30.640Z,8.70
2018-09-27T19:01:58.568Z,8.27
2018-09-27T19:04:26.568Z,9.43
2018-09-27T19:06:54.544Z,7.80
2018-09-27T19:09:22.476Z,8.07
2018-09-27T19:11:50.518Z,6.87
2018-09-27T19:14:18.837Z,7.00
2018-09-27T19:16:46.833Z,8.30
2018-09-27T19:19:14.742Z,7.07
2018-09-27T19:21:42.650Z,9.20
2018-09-27T19:24:10.569Z,8.93
2018-09-27T19:26:38.481Z,5.53
2018-09-27T19:29:07.008Z,5.97
2018-09-27T19:31:34.962Z,5.70
2018-09-27T19:34:02.913Z,6.07
2018-09-27T19:36:30.908Z,6.20
2018-09-27T19:38:58.827Z,10.20
2018-09-27T19:41:26.816Z,6.40
2018-09-27T19:43:54.745Z,8.07
2018-09-27T19:46:22.638Z,10.03
2018-09-27T19:48:50.611Z,7.10
2018-09-27T19:51:18.540Z,7.00
2018-09-27T19:53:46.562Z,7.67
2018-09-27T19:56:14.657Z,8.20
2018-09-27T19:58:42.651Z,7.80
2018-09-27T20:01:10.638Z,9.27
2018-09-27T20:03:38.548Z,7.77
2018-09-27T20:06:06.390Z,6.97
2018-09-27T20:08:34.301Z,5.53
2018-09-27T20:11:02.233Z,5.90
2018-09-27T20:13:30.163Z,5.90
2018-09-27T20:15:58.111Z,5.17
2018-09-27T20:18:26.046Z,4.43
2018-09-27T20:20:53.954Z,4.87
2018-09-27T20:23:21.890Z,4.37
2018-09-27T20:25:49.803Z,3.90
2018-09-27T20:28:17.768Z,3.50
2018-09-27T20:30:45.690Z,3.85
2018-09-27T20:33:13.573Z,4.45
2018-09-27T20:35:41.477Z,5.25
2018-09-27T20:38:09.462Z,4.20
2018-09-27T20:40:37.421Z,4.90
2018-09-27T20:43:05.398Z,7.28
2018-09-27T20:45:33.422Z,5.85
2018-09-27T20:48:01.321Z,5.95
2018-09-27T20:50:29.258Z,8.58
2018-09-27T20:52:57.178Z,6.50
2018-09-27T20:55:25.873Z,9.20
2018-09-27T20:57:53.873Z,6.90
2018-09-27T21:00:21.857Z,7.33
2018-09-27T21:02:49.781Z,7.50
2018-09-27T21:05:17.853Z,6.92
2018-09-27T21:07:45.952Z,7.17
2018-09-27T21:12:57.410Z,5.60
2018-09-27T21:15:25.343Z,5.83
2018-09-27T21:17:53.358Z,4.90
2018-09-27T21:20:21.518Z,5.22
2018-09-27T21:22:49.426Z,5.70
2018-09-27T21:25:17.381Z,4.85
2018-09-27T21:27:45.355Z,5.45
2018-09-27T21:30:13.293Z,5.53
2018-09-27T21:32:41.250Z,4.78
2018-09-27T21:35:09.173Z,5.75
2018-09-27T21:37:37.166Z,8.08
2018-09-27T21:40:05.508Z,5.70
2018-09-27T21:42:33.449Z,5.28
2018-09-27T21:45:01.766Z,6.60
2018-09-27T21:47:31.160Z,7.05
2018-09-27T21:49:59.176Z,7.40
2018-09-27T21:52:27.071Z,8.90
2018-09-27T21:54:55.017Z,6.62
2018-09-27T21:57:23.037Z,7.22
2018-09-27T21:59:51.408Z,6.97
2018-09-27T22:02:19.344Z,9.30
2018-09-27T22:04:47.285Z,6.30
2018-09-27T22:07:15.232Z,9.05
2018-09-27T22:09:43.182Z,7.22
2018-09-27T22:12:11.075Z,8.13
2018-09-27T22:14:39.050Z,7.28
2018-09-27T22:17:07.093Z,7.05
2018-09-27T22:19:35.096Z,7.87
2018-09-27T22:22:03.109Z,7.92
2018-09-27T22:24:31.094Z,6.50
2018-09-27T22:26:59.052Z,7.10
2018-09-27T22:29:27.098Z,6.72
2018-09-27T22:31:56.068Z,7.20
2018-09-27T22:34:24.049Z,7.03
2018-09-27T22:36:51.950Z,7.37
2018-09-27T22:39:20.374Z,8.05
2018-09-27T22:41:49.018Z,8.28
2018-09-27T22:44:16.917Z,7.42
2018-09-27T22:46:44.851Z,8.05
2018-09-27T22:49:12.913Z,7.45
2018-09-27T22:51:40.897Z,7.95
2018-09-27T22:54:08.849Z,7.03
2018-09-27T22:56:36.797Z,8.45
2018-09-27T22:59:04.793Z,6.72
2018-09-27T23:01:32.789Z,8.45
2018-09-27T23:04:00.804Z,8.85
2018-09-27T23:06:28.793Z,8.78
2018-09-27T23:08:56.776Z,7.53
2018-09-27T23:11:24.884Z,6.67
2018-09-27T23:13:52.881Z,7.75
2018-09-27T23:16:20.882Z,6.97
2018-09-27T23:18:49.258Z,6.60
2018-09-27T23:21:18.152Z,5.87
2018-09-27T23:23:46.228Z,5.22
2018-09-27T23:26:14.773Z,5.30
2018-09-27T23:28:42.709Z,5.90
2018-09-27T23:31:10.620Z,6.20
2018-09-27T23:33:38.736Z,6.47
2018-09-27T23:36:06.687Z,5.67
2018-09-27T23:38:34.672Z,5.70
2018-09-27T23:41:02.677Z,6.58
2018-09-27T23:43:30.669Z,6.70
2018-09-27T23:45:58.554Z,6.65
2018-09-27T23:48:26.532Z,7.42
2018-09-27T23:50:54.460Z,7.30
2018-09-27T23:53:23.316Z,7.80
2018-09-27T23:55:51.240Z,8.08
2018-09-27T23:58:19.242Z,8.08
